Terminal Aerodrome Forecast
Issued by NWS Twin Cities, MN

Home | Current Version | Previous Version | Graphics & Text | Print | Product List | Glossary On
Versions: 1 2 3 4 5 6 7 8 9 10 11 12 13 14 15 16 17 18 19 20 21 22 23 24 25 26
443
FTUS43 KMPX 201228 AAA
TAFMSP
TAF AMD
KMSP 201228Z 2012/2118 VRB03KT 3SM BCFG BKN003
     FM201345 35004KT P6SM FEW010 BKN250
     FM201500 34006KT P6SM BKN200
     FM210200 VRB03KT P6SM SCT150
     FM211000 12004KT P6SM BKN100
     FM211500 12006KT P6SM VCSH SCT050 BKN090=

USA.gov is the U.S. government's official web portal to all federal, state and local government web resources and services.